Time;durP1;ratioP1;P1;durP2;ratioP2;P2;SDS_P1;SDS_P2;PMS_P1;PMS_P2;Temp;Humidity;BMP_temperature;BMP_pressure;BME280_temperature;BME280_humidity;BME280_pressure;Samples;Min_cycle;Max_cycle;Signal;HPM_P1;HPM_P2
2023/06/02 00:02:13;;;;;;;;;12.00;8.67;;;;;17.34;51.61;101657.34;5069336;27;46426;-53
2023/06/02 00:04:38;;;;;;;;;7.67;7.67;;;;;17.30;51.17;101664.72;5071158;27;45314;-54
2023/06/02 00:07:07;;;;;;;;;9.33;7.00;;;;;17.28;51.72;101663.97;5077043;27;45528;-50
2023/06/02 00:09:40;;;;;;;;;12.67;7.00;;;;;17.26;51.62;101660.53;5071435;27;45581;-52
2023/06/02 00:12:07;;;;;;;;;9.00;6.00;;;;;17.27;52.24;101661.38;5074399;28;45425;-50
2023/06/02 00:14:33;;;;;;;;;12.00;9.00;;;;;17.18;53.24;101661.00;5064738;27;45760;-53
2023/06/02 00:17:00;;;;;;;;;13.00;8.33;;;;;17.12;52.02;101663.25;5067384;28;45637;-52
2023/06/02 00:19:26;;;;;;;;;12.67;9.33;;;;;17.00;52.43;101659.47;5074047;27;45448;-53
2023/06/02 00:21:53;;;;;;;;;10.67;7.67;;;;;16.95;52.95;101649.03;5060725;28;46686;-52
2023/06/02 00:24:19;;;;;;;;;14.67;8.33;;;;;16.89;52.89;101653.91;5061970;28;45414;-50
2023/06/02 00:26:44;;;;;;;;;7.33;7.33;;;;;16.83;52.61;101653.34;5062955;28;45356;-53
2023/06/02 00:29:10;;;;;;;;;14.33;12.00;;;;;16.80;53.01;101658.88;5074269;27;50644;-52
2023/06/02 00:31:35;;;;;;;;;13.33;9.67;;;;;16.77;52.99;101659.09;5062588;28;46332;-50
2023/06/02 00:34:00;;;;;;;;;9.00;9.00;;;;;16.77;54.17;101667.16;5061632;27;45315;-53
2023/06/02 00:36:26;;;;;;;;;12.33;9.33;;;;;16.74;53.42;101663.78;5071766;28;45461;-51
2023/06/02 00:38:51;;;;;;;;;13.67;11.67;;;;;16.69;54.63;101675.69;5064632;27;45554;-53
2023/06/02 00:41:16;;;;;;;;;13.67;12.33;;;;;16.66;54.04;101673.19;5063623;28;62568;-52
2023/06/02 00:43:42;;;;;;;;;13.33;11.00;;;;;16.67;53.48;101668.69;5064818;27;56038;-53
2023/06/02 00:46:07;;;;;;;;;13.00;13.00;;;;;16.66;53.67;101673.19;5069381;27;45327;-52
2023/06/02 00:48:32;;;;;;;;;13.00;10.67;;;;;16.66;53.40;101666.94;5068781;28;68678;-52
2023/06/02 00:50:58;;;;;;;;;13.33;12.00;;;;;16.69;53.94;101664.09;5064509;28;69616;-52
2023/06/02 00:53:23;;;;;;;;;13.33;13.33;;;;;16.66;53.18;101667.81;5046798;28;45519;-51
2023/06/02 00:55:50;;;;;;;;;14.67;13.33;;;;;16.67;53.41;101658.81;5064921;28;51713;-51
2023/06/02 00:58:16;;;;;;;;;11.33;11.33;;;;;16.61;53.79;101663.69;5054342;28;45663;-53
2023/06/02 01:00:42;;;;;;;;;13.67;13.67;;;;;16.64;53.74;101663.50;5073286;28;46329;-52
2023/06/02 01:03:07;;;;;;;;;16.00;13.67;;;;;16.63;53.36;101668.00;5066743;27;45230;-53
2023/06/02 01:05:36;;;;;;;;;18.00;18.00;;;;;16.62;54.96;101666.28;5063847;27;45386;-51
2023/06/02 01:08:02;;;;;;;;;13.00;12.67;;;;;16.57;54.87;101673.78;5068933;28;45492;-52
2023/06/02 01:10:28;;;;;;;;;14.33;14.33;;;;;16.52;54.57;101667.81;5073009;28;46451;-53
2023/06/02 01:12:54;;;;;;;;;16.00;14.67;;;;;16.54;55.09;101680.19;5065464;27;45420;-52
2023/06/02 01:15:20;;;;;;;;;18.00;16.67;;;;;16.53;53.68;101666.84;5064770;28;45369;-52
2023/06/02 01:17:46;;;;;;;;;19.00;16.67;;;;;16.57;53.77;101675.56;5069827;27;45355;-52
2023/06/02 01:20:15;;;;;;;;;18.00;17.00;;;;;16.58;55.14;101669.25;5062200;27;46612;-52
2023/06/02 01:22:57;;;;;;;;;16.00;14.67;;;;;16.53;54.89;101661.47;5068227;28;45472;-51
2023/06/02 01:25:25;;;;;;;;;18.67;18.67;;;;;16.40;55.73;101663.19;5067290;28;45436;-51
2023/06/02 01:27:51;;;;;;;;;14.67;13.33;;;;;16.24;55.77;101661.44;5067888;27;45612;-53
2023/06/02 01:30:18;;;;;;;;;20.00;16.67;;;;;16.18;55.62;101665.34;5075961;27;45618;-51
2023/06/02 01:32:50;;;;;;;;;18.67;18.67;;;;;16.13;54.77;101661.22;5073987;28;45488;-51
2023/06/02 01:35:18;;;;;;;;;18.00;16.33;;;;;16.10;55.68;101661.41;5074150;28;45288;-51
2023/06/02 01:37:54;;;;;;;;;18.67;18.67;;;;;16.12;55.60;101656.81;5070568;28;45756;-51
2023/06/02 01:40:21;;;;;;;;;22.33;19.00;;;;;15.73;57.54;101661.72;5076460;28;46602;-53
2023/06/02 01:42:47;;;;;;;;;22.33;19.00;;;;;15.72;56.74;101662.66;5076704;28;45612;-53
2023/06/02 01:45:13;;;;;;;;;19.00;17.00;;;;;15.68;57.73;101664.69;5073151;28;67127;-52
2023/06/02 01:47:39;;;;;;;;;21.67;18.67;;;;;15.63;56.97;101660.53;5071092;27;45702;-51
2023/06/02 01:50:05;;;;;;;;;21.33;18.00;;;;;15.60;57.83;101656.19;5071303;28;47054;-52
2023/06/02 01:52:30;;;;;;;;;19.00;19.00;;;;;15.56;57.33;101657.34;5074015;27;45440;-54
2023/06/02 01:54:56;;;;;;;;;14.33;12.33;;;;;15.80;57.39;101656.84;5079070;28;45195;-51
2023/06/02 01:57:22;;;;;;;;;19.67;19.67;;;;;15.81;55.99;101658.63;5074578;27;46824;-52
2023/06/02 01:59:47;;;;;;;;;18.00;18.00;;;;;15.84;57.08;101655.78;5070887;27;45394;-53
2023/06/02 02:02:13;;;;;;;;;20.00;17.67;;;;;15.81;56.42;101650.56;5066276;27;45579;-52
2023/06/02 02:04:40;;;;;;;;;22.33;19.33;;;;;15.83;56.17;101651.38;5069787;28;52866;-53
2023/06/02 02:07:08;;;;;;;;;19.33;16.00;;;;;15.86;56.59;101662.75;5066457;28;45897;-53
2023/06/02 02:09:34;;;;;;;;;20.00;16.67;;;;;15.87;56.40;101658.28;5067806;28;46356;-53
2023/06/02 02:11:59;;;;;;;;;21.33;19.33;;;;;15.88;56.26;101665.38;5068733;28;45536;-52
2023/06/02 02:14:24;;;;;;;;;24.00;24.00;;;;;15.83;56.36;101662.94;5074182;28;61192;-52
2023/06/02 02:16:51;;;;;;;;;22.00;19.00;;;;;15.83;56.40;101659.41;5065498;27;45546;-53
2023/06/02 02:19:16;;;;;;;;;21.67;17.00;;;;;15.79;56.90;101671.25;5066733;27;45726;-52
2023/06/02 02:21:42;;;;;;;;;22.67;20.67;;;;;15.77;56.39;101662.41;5075364;28;70930;-51
2023/06/02 02:24:07;;;;;;;;;23.00;21.33;;;;;15.76;56.64;101666.03;5079934;28;45373;-53
2023/06/02 02:26:33;;;;;;;;;16.67;16.00;;;;;15.78;56.03;101666.81;5071857;28;45729;-50
2023/06/02 02:28:58;;;;;;;;;21.67;19.33;;;;;15.81;55.54;101669.34;5079224;27;45384;-50
2023/06/02 02:31:24;;;;;;;;;20.67;18.67;;;;;15.82;55.99;101674.63;5075313;27;65332;-51
2023/06/02 02:33:50;;;;;;;;;19.33;18.00;;;;;15.85;55.55;101671.78;5068395;27;45457;-50
2023/06/02 02:36:16;;;;;;;;;24.67;21.67;;;;;15.83;56.01;101675.50;5088529;27;45594;-52
2023/06/02 02:38:41;;;;;;;;;23.33;20.33;;;;;15.77;56.25;101670.47;5069531;28;46351;-51
2023/06/02 02:41:07;;;;;;;;;19.33;15.67;;;;;15.70;55.29;101680.69;5072483;28;45492;-52
2023/06/02 02:43:32;;;;;;;;;18.33;16.67;;;;;15.71;55.61;101677.06;5077527;27;45344;-52
2023/06/02 02:45:58;;;;;;;;;21.67;19.00;;;;;15.66;55.28;101685.34;5075029;27;45578;-53
2023/06/02 02:48:23;;;;;;;;;23.33;20.00;;;;;15.62;56.77;101683.81;5068302;27;74068;-52
2023/06/02 02:50:48;;;;;;;;;20.67;20.67;;;;;15.56;55.90;101684.16;5070838;28;45465;-50
2023/06/02 02:53:16;;;;;;;;;24.67;22.00;;;;;15.47;57.65;101684.66;5070337;27;62215;-52
2023/06/02 02:55:44;;;;;;;;;22.33;18.67;;;;;15.39;56.10;101674.38;5061692;27;46056;-52
2023/06/02 02:58:09;;;;;;;;;24.00;20.33;;;;;15.24;57.63;101688.63;5091858;27;47243;-52
2023/06/02 03:00:35;;;;;;;;;22.00;19.00;;;;;15.19;57.88;101681.72;5070677;27;45621;-52
2023/06/02 03:03:01;;;;;;;;;23.67;21.00;;;;;15.13;57.13;101678.53;5065495;27;45757;-53
2023/06/02 03:05:26;;;;;;;;;22.00;21.33;;;;;15.06;57.21;101686.03;5077336;27;45658;-52
2023/06/02 03:07:52;;;;;;;;;25.33;22.33;;;;;15.03;56.93;101688.88;5078922;27;47186;-52
2023/06/02 03:10:17;;;;;;;;;21.33;19.67;;;;;14.98;58.17;101686.47;5062667;27;45354;-52
2023/06/02 03:12:43;;;;;;;;;21.33;19.67;;;;;14.92;57.94;101686.78;5071931;27;45654;-51
2023/06/02 03:15:08;;;;;;;;;23.67;20.33;;;;;14.86;57.89;101681.75;5068328;28;45434;-50
2023/06/02 03:17:34;;;;;;;;;22.33;20.67;;;;;14.83;57.36;101690.81;5087241;27;47942;-50
2023/06/02 03:20:00;;;;;;;;;23.33;22.00;;;;;14.80;57.94;101692.81;5068462;27;45299;-50
2023/06/02 03:22:25;;;;;;;;;26.67;22.67;;;;;14.79;57.70;101697.28;5069672;28;45730;-52
2023/06/02 03:24:50;;;;;;;;;20.00;19.00;;;;;14.80;57.56;101692.81;5064416;28;45687;-51
2023/06/02 03:27:16;;;;;;;;;26.00;23.33;;;;;14.80;58.25;101696.34;5066366;28;71421;-52
2023/06/02 03:29:42;;;;;;;;;29.33;25.33;;;;;14.78;58.41;101694.69;5074813;27;45303;-50
2023/06/02 03:32:09;;;;;;;;;21.67;20.00;;;;;14.71;58.41;101703.06;5069863;28;45722;-51
2023/06/02 03:34:35;;;;;;;;;23.67;22.00;;;;;14.72;58.09;101696.75;5073994;28;45984;-52
2023/06/02 03:37:01;;;;;;;;;22.33;20.00;;;;;14.71;58.15;101694.16;5070716;27;46573;-51
2023/06/02 03:39:26;;;;;;;;;25.00;21.33;;;;;14.70;58.48;101703.13;5060320;28;45438;-50
2023/06/02 03:41:52;;;;;;;;;23.67;23.00;;;;;14.68;58.43;101700.56;5069299;28;65641;-52
2023/06/02 03:44:17;;;;;;;;;25.67;23.67;;;;;14.66;58.31;101705.09;5071811;27;67434;-52
2023/06/02 03:46:42;;;;;;;;;27.33;26.33;;;;;14.66;58.74;101696.22;5070245;27;45354;-50
2023/06/02 03:49:08;;;;;;;;;22.00;19.33;;;;;14.65;57.99;101695.38;5068053;27;68838;-52
2023/06/02 03:51:33;;;;;;;;;29.33;25.33;;;;;14.61;57.66;101693.75;5079742;27;53605;-53
2023/06/02 03:53:58;;;;;;;;;27.00;24.67;;;;;14.64;58.62;101709.69;5070020;28;66409;-53
2023/06/02 03:56:25;;;;;;;;;25.67;24.00;;;;;14.61;58.91;101701.78;5065623;28;45367;-51
2023/06/02 03:58:50;;;;;;;;;26.33;22.33;;;;;14.61;58.00;101706.28;5073084;28;45251;-53
2023/06/02 04:01:16;;;;;;;;;27.67;23.67;;;;;14.66;58.11;101707.78;5067684;27;45674;-53
2023/06/02 04:03:41;;;;;;;;;27.67;22.67;;;;;14.70;58.05;101701.31;5066123;28;45705;-53
2023/06/02 04:06:08;;;;;;;;;25.00;25.00;;;;;14.75;57.63;101706.44;5050776;27;64237;-52
2023/06/02 04:08:33;;;;;;;;;23.00;20.67;;;;;14.78;58.05;101708.94;5063381;27;45438;-53
2023/06/02 04:10:59;;;;;;;;;29.00;26.33;;;;;14.76;58.45;101710.84;5059965;28;62931;-53
2023/06/02 04:13:24;;;;;;;;;26.00;20.33;;;;;14.75;57.51;101697.56;5073564;28;45924;-52
2023/06/02 04:15:50;;;;;;;;;24.33;24.33;;;;;14.74;57.77;101695.81;5065137;27;46290;-49
2023/06/02 04:18:16;;;;;;;;;24.00;20.33;;;;;14.75;57.83;101705.59;5089106;27;45453;-52
2023/06/02 04:20:41;;;;;;;;;16.00;12.67;;;;;14.75;58.13;101692.19;5076382;28;62747;-52
2023/06/02 04:23:06;;;;;;;;;30.67;27.33;;;;;14.74;58.04;101698.50;5067061;27;45498;-52
2023/06/02 04:25:32;;;;;;;;;33.67;29.67;;;;;14.75;57.90;101703.75;5065054;27;46214;-53
2023/06/02 04:27:57;;;;;;;;;23.00;23.00;;;;;14.78;57.74;101698.22;5061565;28;66091;-52
2023/06/02 04:30:22;;;;;;;;;29.33;24.33;;;;;14.78;58.05;101705.41;5058139;28;64337;-51
2023/06/02 04:32:49;;;;;;;;;24.00;23.67;;;;;14.81;57.40;101703.44;5068633;28;47974;-52
2023/06/02 04:35:15;;;;;;;;;24.67;21.00;;;;;14.91;57.17;101713.66;5070334;27;46280;-50
2023/06/02 04:37:43;;;;;;;;;32.67;28.33;;;;;14.94;57.32;101706.34;5061205;28;45909;-50
2023/06/02 04:40:09;;;;;;;;;28.67;27.00;;;;;15.01;56.81;101718.44;5067185;27;45507;-51
2023/06/02 04:42:36;;;;;;;;;28.67;27.00;;;;;15.08;56.93;101718.09;5068601;27;45759;-53
2023/06/02 04:45:03;;;;;;;;;27.67;24.33;;;;;15.12;56.58;101719.66;5072268;28;45316;-52
2023/06/02 04:47:28;;;;;;;;;29.67;27.33;;;;;15.16;56.07;101715.84;5070665;27;45602;-52
2023/06/02 04:49:54;;;;;;;;;35.67;30.67;;;;;15.22;56.06;101720.88;5069709;27;61761;-52
2023/06/02 04:52:19;;;;;;;;;30.33;28.67;;;;;15.28;56.30;101723.25;5072247;27;45492;-52
2023/06/02 04:54:45;;;;;;;;;32.33;28.67;;;;;15.33;55.50;101713.13;5066711;28;45612;-52
2023/06/02 04:57:10;;;;;;;;;33.33;30.00;;;;;15.36;55.52;101720.97;5068282;27;72273;-50
2023/06/02 04:59:35;;;;;;;;;30.33;29.33;;;;;15.41;54.84;101718.06;5076332;28;48467;-52
2023/06/02 05:02:01;;;;;;;;;33.67;29.33;;;;;15.41;54.59;101710.03;5070504;27;45273;-53
2023/06/02 05:04:27;;;;;;;;;34.00;31.67;;;;;15.35;54.64;101727.28;5087811;27;46729;-52
2023/06/02 05:06:52;;;;;;;;;35.33;32.00;;;;;15.25;55.11;101715.34;5068722;27;69622;-50
2023/06/02 05:09:18;;;;;;;;;33.00;30.67;;;;;15.29;54.61;101724.09;5072061;28;45366;-53
2023/06/02 05:11:43;;;;;;;;;37.00;32.33;;;;;15.36;54.76;101730.84;5060481;27;45508;-53
2023/06/02 05:14:09;;;;;;;;;43.33;34.67;;;;;15.39;54.62;101726.16;5081606;27;45675;-50
2023/06/02 05:16:35;;;;;;;;;45.00;35.67;;;;;15.46;54.13;101725.84;5071276;27;65596;-50
2023/06/02 05:19:00;;;;;;;;;39.33;31.67;;;;;15.47;54.03;101720.38;5077482;28;45571;-52
2023/06/02 05:21:28;;;;;;;;;42.00;32.67;;;;;15.50;53.97;101728.25;5075621;27;45383;-52
2023/06/02 05:23:54;;;;;;;;;36.00;31.33;;;;;15.54;54.22;101727.13;5080624;27;46360;-51
2023/06/02 05:26:19;;;;;;;;;35.67;29.33;;;;;15.60;53.68;101725.06;5076236;27;45768;-52
2023/06/02 05:28:45;;;;;;;;;37.67;33.00;;;;;15.68;53.73;101726.38;5076639;27;46410;-52
2023/06/02 05:31:10;;;;;;;;;42.33;32.67;;;;;15.76;53.35;101725.03;5072387;27;57813;-53
2023/06/02 05:33:36;;;;;;;;;44.00;35.00;;;;;15.79;53.32;101719.53;5073295;27;46274;-53
2023/06/02 05:36:01;;;;;;;;;44.00;35.25;;;;;15.81;53.15;101729.25;5065870;28;45648;-52
2023/06/02 05:38:26;;;;;;;;;43.00;36.50;;;;;15.82;52.85;101722.06;5069241;27;66054;-52
2023/06/02 05:40:52;;;;;;;;;41.50;34.50;;;;;15.88;52.69;101729.75;5070313;27;63589;-53
2023/06/02 05:43:17;;;;;;;;;40.50;32.75;;;;;15.99;52.47;101723.75;5085586;27;46432;-51
2023/06/02 05:45:42;;;;;;;;;37.67;34.33;;;;;16.09;52.60;101722.25;5065066;27;45391;-49
2023/06/02 05:48:08;;;;;;;;;40.00;34.00;;;;;16.16;52.04;101715.56;5070693;27;64780;-51
2023/06/02 05:50:33;;;;;;;;;37.00;34.33;;;;;16.22;51.93;101714.34;5070274;27;45469;-52
2023/06/02 05:52:58;;;;;;;;;43.67;36.33;;;;;16.25;51.54;101713.31;5071464;27;61790;-52
2023/06/02 05:55:24;;;;;;;;;47.67;39.00;;;;;16.27;51.36;101714.94;5071306;27;63368;-50
2023/06/02 05:57:51;;;;;;;;;40.67;33.00;;;;;16.30;51.45;101716.59;5075784;28;54060;-53
2023/06/02 06:00:17;;;;;;;;;45.00;31.33;;;;;16.33;50.83;101708.34;5076374;28;45342;-51
2023/06/02 06:02:42;;;;;;;;;41.67;33.33;;;;;16.34;50.60;101710.06;5077217;27;45414;-52
2023/06/02 06:05:08;;;;;;;;;35.33;27.67;;;;;16.37;50.56;101716.13;5074261;28;45395;-53
2023/06/02 06:07:33;;;;;;;;;35.00;29.00;;;;;16.38;50.80;101709.78;5078601;28;46078;-52
2023/06/02 06:09:59;;;;;;;;;32.67;30.33;;;;;16.44;50.64;101711.25;5075020;27;51033;-53
2023/06/02 06:12:24;;;;;;;;;42.67;33.67;;;;;16.55;50.37;101718.66;5074532;27;45446;-52
2023/06/02 06:14:49;;;;;;;;;38.00;32.33;;;;;16.55;50.35;101715.97;5064655;28;69130;-50
2023/06/02 06:17:15;;;;;;;;;31.00;29.00;;;;;16.57;50.32;101718.53;5070754;28;66385;-49
2023/06/02 06:19:40;;;;;;;;;28.33;26.67;;;;;16.62;49.75;101720.00;5068898;27;61702;-52
2023/06/02 06:22:05;;;;;;;;;39.67;33.67;;;;;16.59;49.57;101728.25;5066324;27;73407;-52
2023/06/02 06:24:31;;;;;;;;;37.33;34.33;;;;;16.50;49.57;101728.78;5068019;28;65345;-52
2023/06/02 06:26:56;;;;;;;;;36.67;32.33;;;;;16.46;49.76;101712.00;5070074;27;57704;-52
2023/06/02 06:29:22;;;;;;;;;44.00;34.33;;;;;16.51;49.72;101719.78;5067004;27;45554;-50
2023/06/02 06:31:47;;;;;;;;;39.00;35.00;;;;;16.53;49.78;101717.84;5064140;27;63548;-52
2023/06/02 06:34:13;;;;;;;;;37.33;34.33;;;;;16.63;49.90;101721.72;5067583;28;45624;-52
2023/06/02 06:36:39;;;;;;;;;41.67;32.67;;;;;16.77;49.40;101720.88;5058882;27;61416;-53
2023/06/02 06:39:04;;;;;;;;;37.00;32.00;;;;;16.93;49.52;101723.50;5061401;28;45417;-52
2023/06/02 06:41:29;;;;;;;;;37.00;31.33;;;;;17.15;48.86;101732.91;5062208;28;72312;-51
2023/06/02 06:43:55;;;;;;;;;44.67;34.67;;;;;17.30;48.37;101731.94;5070653;27;46598;-53
2023/06/02 06:46:20;;;;;;;;;43.00;34.67;;;;;17.51;48.56;101721.63;5076441;27;59406;-51
2023/06/02 06:48:45;;;;;;;;;41.00;33.00;;;;;18.11;47.55;101722.22;5075510;27;45640;-51
2023/06/02 06:51:11;;;;;;;;;36.67;32.33;;;;;18.25;46.16;101721.31;5073395;27;69006;-49
2023/06/02 06:53:36;;;;;;;;;37.33;32.67;;;;;18.17;45.92;101726.31;5078203;27;57333;-51
2023/06/02 06:56:02;;;;;;;;;28.00;26.67;;;;;18.06;45.81;101726.22;5067079;28;64128;-49
2023/06/02 06:58:28;;;;;;;;;39.67;35.33;;;;;17.94;46.02;101727.84;5077897;28;45548;-51
2023/06/02 07:00:54;;;;;;;;;42.33;35.67;;;;;17.89;46.17;101732.69;5076073;27;45616;-51
2023/06/02 07:03:19;;;;;;;;;37.00;33.00;;;;;17.85;46.08;101734.69;5068803;27;45649;-50
2023/06/02 07:05:45;;;;;;;;;36.67;34.33;;;;;17.93;46.01;101728.84;5070527;27;46150;-53
2023/06/02 07:08:11;;;;;;;;;38.33;32.33;;;;;18.02;46.23;101730.91;5073978;28;45736;-52
2023/06/02 07:10:37;;;;;;;;;36.67;32.00;;;;;18.22;45.72;101728.72;5094269;27;45389;-52
2023/06/02 07:13:02;;;;;;;;;32.33;31.67;;;;;18.77;45.90;101726.72;5068362;27;67320;-52
2023/06/02 07:15:27;;;;;;;;;35.33;32.00;;;;;19.37;44.87;101730.56;5068628;27;45611;-53
2023/06/02 07:17:53;;;;;;;;;32.00;31.33;;;;;19.81;43.61;101723.75;5076654;27;45523;-53
2023/06/02 07:20:18;;;;;;;;;46.00;31.00;;;;;20.87;41.05;101719.34;5085660;27;46909;-53
2023/06/02 07:22:43;;;;;;;;;38.33;28.33;;;;;21.24;40.75;101723.63;5065752;27;55569;-53
2023/06/02 07:25:09;;;;;;;;;34.00;32.00;;;;;21.16;40.97;101729.66;5067765;27;45889;-53
2023/06/02 07:27:35;;;;;;;;;30.67;29.67;;;;;21.05;40.43;101716.97;5069501;27;45436;-52
2023/06/02 07:30:02;;;;;;;;;34.00;31.33;;;;;20.89;39.86;101724.63;5069031;28;45438;-52
2023/06/02 07:32:27;;;;;;;;;35.67;30.33;;;;;20.80;40.80;101718.09;5055603;28;45456;-52
2023/06/02 07:34:53;;;;;;;;;31.67;27.67;;;;;20.89;40.68;101711.09;5046128;27;45256;-53
2023/06/02 07:37:18;;;;;;;;;32.33;30.00;;;;;21.71;40.44;101718.03;5076675;27;45507;-53
2023/06/02 07:39:43;;;;;;;;;28.33;23.33;;;;;23.00;37.92;101718.81;5066253;27;65720;-53
2023/06/02 07:42:09;;;;;;;;;24.67;20.33;;;;;24.37;34.72;101711.78;5068261;27;70289;-52
2023/06/02 07:44:34;;;;;;;;;24.67;21.67;;;;;24.13;33.33;101714.94;5073745;27;45403;-53
2023/06/02 07:47:00;;;;;;;;;22.33;20.67;;;;;24.02;33.56;101717.84;5081096;27;45469;-53
2023/06/02 07:49:25;;;;;;;;;20.00;18.67;;;;;24.35;34.31;101719.22;5071001;27;45541;-53
2023/06/02 07:51:51;;;;;;;;;22.33;21.33;;;;;24.67;34.54;101719.94;5067837;27;67685;-52
2023/06/02 07:54:16;;;;;;;;;26.00;25.33;;;;;25.85;32.41;101723.78;5069935;27;45815;-53
2023/06/02 07:56:42;;;;;;;;;24.00;23.00;;;;;27.30;28.78;101715.25;5064152;27;45839;-53
2023/06/02 07:59:11;;;;;;;;;22.00;20.67;;;;;28.65;28.38;101715.06;5069282;27;46210;-53
2023/06/02 08:01:37;;;;;;;;;21.33;20.67;;;;;29.17;26.93;101717.31;5071753;27;45789;-52
2023/06/02 08:04:02;;;;;;;;;25.67;23.00;;;;;29.12;27.07;101710.69;5072628;27;45460;-55
2023/06/02 08:06:27;;;;;;;;;21.00;20.33;;;;;29.99;26.22;101720.66;5069217;28;45557;-53
2023/06/02 08:08:53;;;;;;;;;20.67;19.00;;;;;31.50;25.89;101715.13;5074191;27;68951;-53
2023/06/02 08:11:18;;;;;;;;;33.33;24.33;;;;;32.72;24.79;101716.03;5076058;27;63611;-55
2023/06/02 08:13:44;;;;;;;;;26.33;24.00;;;;;33.89;24.25;101713.34;5070829;27;45502;-53
2023/06/02 08:16:09;;;;;;;;;20.67;20.67;;;;;35.09;23.05;101706.88;5065163;28;45587;-54
2023/06/02 08:18:35;;;;;;;;;24.67;19.67;;;;;36.36;22.66;101713.56;5068817;27;63201;-53
2023/06/02 08:21:00;;;;;;;;;23.00;22.00;;;;;37.38;21.37;101708.59;5080493;27;58176;-53
2023/06/02 08:23:27;;;;;;;;;25.33;22.33;;;;;38.38;18.63;101714.50;5073613;27;56132;-53
2023/06/02 08:25:54;;;;;;;;;25.67;22.67;;;;;38.79;18.14;101709.09;5062811;27;45429;-56
2023/06/02 08:28:24;;;;;;;;;22.33;21.33;;;;;38.97;17.95;101720.03;5076176;27;45590;-54
2023/06/02 08:30:51;;;;;;;;;18.00;18.00;;;;;38.93;16.43;101724.38;5078935;27;45533;-50
2023/06/02 08:33:17;;;;;;;;;25.67;25.67;;;;;38.31;18.07;101722.13;5069450;27;45445;-54
2023/06/02 08:35:42;;;;;;;;;26.67;25.00;;;;;38.87;17.79;101723.41;5067990;27;45428;-54
2023/06/02 08:38:08;;;;;;;;;25.33;23.67;;;;;38.85;17.69;101720.06;5089824;27;47149;-54
2023/06/02 08:40:37;;;;;;;;;23.33;23.33;;;;;39.47;16.58;101714.91;5068799;27;45477;-54
2023/06/02 08:43:08;;;;;;;;;22.33;21.67;;;;;40.54;14.79;101720.66;5069837;27;45431;-55
2023/06/02 08:45:34;;;;;;;;;24.00;22.33;;;;;41.33;14.78;101708.28;5080450;27;45875;-56
2023/06/02 08:48:03;;;;;;;;;24.67;22.33;;;;;42.43;15.29;101708.97;5061918;27;47479;-55
2023/06/02 08:50:32;;;;;;;;;27.67;23.67;;;;;43.42;14.68;101707.47;5067823;27;45376;-55
2023/06/02 08:53:04;;;;;;;;;25.67;24.33;;;;;44.07;11.98;101699.38;5067172;27;45534;-55
2023/06/02 08:55:29;;;;;;;;;22.00;21.33;;;;;44.40;13.51;101701.88;5076721;27;45513;-55
2023/06/02 08:57:55;;;;;;;;;24.33;20.67;;;;;45.41;13.51;101703.66;5069924;27;45525;-56
2023/06/02 09:00:20;;;;;;;;;23.33;23.33;;;;;45.91;12.83;101701.63;5068635;27;45517;-56
2023/06/02 09:02:49;;;;;;;;;26.67;24.33;;;;;46.67;11.73;101701.13;5069341;27;45338;-56
2023/06/02 09:05:18;;;;;;;;;26.00;22.67;;;;;47.07;11.79;101702.88;5071539;27;45485;-56
2023/06/02 09:07:45;;;;;;;;;27.00;27.00;;;;;47.99;10.23;101700.56;5077243;27;46476;-59
2023/06/02 09:10:27;;;;;;;;;22.00;21.00;;;;;48.33;10.33;101700.22;5064678;27;45519;-57
2023/06/02 09:12:52;;;;;;;;;24.33;24.33;;;;;48.08;10.32;101709.16;5073596;27;45488;-57
2023/06/02 09:15:18;;;;;;;;;24.00;22.00;;;;;47.73;10.87;101712.25;5073503;27;45334;-56
2023/06/02 09:17:43;;;;;;;;;23.67;22.67;;;;;47.99;10.92;101694.94;5070441;27;46383;-56
2023/06/02 09:20:11;;;;;;;;;26.67;21.00;;;;;48.47;8.80;101703.03;5091435;27;62496;-56
2023/06/02 09:22:55;;;;;;;;;24.67;21.67;;;;;48.58;9.49;101692.41;5075459;27;45409;-56
2023/06/02 09:25:29;;;;;;;;;18.00;18.00;;;;;48.87;9.38;101699.69;5067237;28;45628;-57
2023/06/02 09:27:59;;;;;;;;;22.00;20.00;;;;;49.39;8.65;101705.00;5072908;27;47056;-59
2023/06/02 09:30:26;;;;;;;;;21.67;21.00;;;;;49.64;8.93;101714.03;5070490;27;45508;-57
2023/06/02 09:32:59;;;;;;;;;25.00;23.00;;;;;49.33;8.51;101709.09;5074137;27;45650;-57
2023/06/02 09:35:44;;;;;;;;;23.33;21.33;;;;;49.12;8.75;101694.63;5073536;27;45460;-57
2023/06/02 09:38:11;;;;;;;;;25.00;24.00;;;;;49.87;9.43;101706.31;5070242;27;45791;-56
2023/06/02 09:40:37;;;;;;;;;20.33;20.33;;;;;50.31;8.35;101703.72;5075902;27;45393;-56
2023/06/02 09:43:08;;;;;;;;;22.67;21.67;;;;;50.63;7.70;101702.53;5075035;27;45516;-56
2023/06/02 09:46:00;;;;;;;;;25.33;20.67;;;;;50.17;8.96;101692.53;5076846;27;45434;-56
2023/06/02 09:48:27;;;;;;;;;20.67;18.67;;;;;50.41;9.18;101694.16;5073279;27;45732;-55
2023/06/02 09:50:53;;;;;;;;;20.33;20.00;;;;;50.76;8.82;101694.25;5078754;27;45479;-56
2023/06/02 09:53:19;;;;;;;;;18.00;17.67;;;;;50.92;7.53;101694.63;5078086;27;45516;-56
2023/06/02 09:55:45;;;;;;;;;19.00;17.33;;;;;51.09;8.59;101705.16;5071219;27;45623;-56
2023/06/02 09:58:11;;;;;;;;;20.33;17.67;;;;;50.70;7.85;101693.59;5088230;27;45584;-56
2023/06/02 10:00:36;;;;;;;;;18.33;17.33;;;;;49.92;8.12;101692.06;5075941;27;45407;-56
2023/06/02 10:03:06;;;;;;;;;20.33;20.33;;;;;50.04;8.90;101694.34;5067035;28;45520;-57
2023/06/02 10:05:32;;;;;;;;;20.67;20.00;;;;;50.58;8.53;101696.19;5067292;27;45336;-56
2023/06/02 10:08:16;;;;;;;;;19.00;17.33;;;;;50.27;7.75;101697.06;5082541;27;45480;-57
2023/06/02 10:11:07;;;;;;;;;20.33;19.67;;;;;51.09;7.79;101700.31;5066712;27;45232;-56
2023/06/02 10:13:51;;;;;;;;;22.00;22.00;;;;;51.70;7.78;101695.75;5066247;27;45375;-56
2023/06/02 10:16:40;;;;;;;;;23.00;19.33;;;;;51.78;7.20;101697.78;5073186;27;45445;-56
2023/06/02 10:19:14;;;;;;;;;20.33;20.33;;;;;51.80;7.01;101686.91;5063984;27;45355;-56
2023/06/02 10:22:02;;;;;;;;;21.33;19.00;;;;;51.89;6.40;101701.88;5076799;27;45494;-57
2023/06/02 10:24:27;;;;;;;;;15.33;11.33;;;;;52.12;7.26;101690.34;5072246;27;45468;-57
2023/06/02 10:27:07;;;;;;;;;23.00;21.00;;;;;52.83;8.00;101685.13;5067068;27;45585;-57
2023/06/02 10:29:35;;;;;;;;;20.00;19.00;;;;;53.09;6.19;101696.25;5070435;27;45356;-57
2023/06/02 10:32:20;;;;;;;;;25.33;22.33;;;;;52.65;6.68;101690.91;5076498;27;45743;-57
2023/06/02 10:34:49;;;;;;;;;20.67;17.67;;;;;52.04;7.16;101689.16;5075116;27;45737;-56
2023/06/02 10:37:15;;;;;;;;;21.67;17.00;;;;;52.08;7.14;101686.50;5074219;28;45503;-56
2023/06/02 10:39:41;;;;;;;;;23.33;21.00;;;;;52.37;6.47;101674.34;5064664;27;51825;-56
2023/06/02 10:42:14;;;;;;;;;17.33;16.33;;;;;52.56;6.14;101675.94;5072259;27;45477;-56
2023/06/02 10:44:39;;;;;;;;;18.00;18.00;;;;;52.07;7.03;101679.97;5071880;27;45455;-56
2023/06/02 10:47:17;;;;;;;;;18.00;17.00;;;;;51.73;6.85;101689.41;5064902;27;45381;-56
2023/06/02 10:49:58;;;;;;;;;17.67;15.67;;;;;52.59;6.75;101675.25;5069874;27;45731;-56
2023/06/02 10:52:27;;;;;;;;;19.67;19.00;;;;;53.00;6.64;101682.16;5072012;28;45428;-56
2023/06/02 10:55:08;;;;;;;;;18.67;17.33;;;;;52.95;6.29;101673.00;5075113;27;45733;-56
2023/06/02 10:57:55;;;;;;;;;19.67;17.33;;;;;53.58;6.78;101685.13;5069365;27;45547;-56
2023/06/02 11:00:39;;;;;;;;;19.00;17.67;;;;;52.92;5.92;101678.22;5080817;27;47924;-56
2023/06/02 11:03:22;;;;;;;;;15.33;15.33;;;;;52.10;6.84;101679.34;5072186;27;45468;-55
2023/06/02 11:05:54;;;;;;;;;20.67;18.33;;;;;51.45;7.07;101669.97;5061497;27;45687;-55
2023/06/02 11:08:21;;;;;;;;;17.00;16.00;;;;;51.38;7.08;101659.13;5073426;27;45547;-55
2023/06/02 11:10:52;;;;;;;;;9.67;8.67;;;;;51.17;6.59;101667.50;5067124;27;47434;-55
2023/06/02 11:13:24;;;;;;;;;13.67;13.00;;;;;50.78;7.29;101657.97;5070434;27;45513;-55